sensor_id;sensor_type;location;lat;lon;timestamp;P1;durP1;ratioP1;P2;durP2;ratioP2
19251;SDS011;9760;50.944;5.304;2023-12-07T00:01:19;128.80;;;20.63;;
19251;SDS011;9760;50.944;5.304;2023-12-07T00:03:44;109.97;;;20.73;;
19251;SDS011;9760;50.944;5.304;2023-12-07T00:06:10;70.53;;;18.90;;
19251;SDS011;9760;50.944;5.304;2023-12-07T00:08:36;131.80;;;21.93;;
19251;SDS011;9760;50.944;5.304;2023-12-07T00:11:01;83.60;;;17.50;;
19251;SDS011;9760;50.944;5.304;2023-12-07T00:13:27;92.93;;;19.10;;
19251;SDS011;9760;50.944;5.304;2023-12-07T00:15:53;75.10;;;17.07;;
19251;SDS011;9760;50.944;5.304;2023-12-07T00:18:18;104.53;;;21.77;;
19251;SDS011;9760;50.944;5.304;2023-12-07T00:20:44;76.13;;;18.73;;
19251;SDS011;9760;50.944;5.304;2023-12-07T00:23:10;111.10;;;20.40;;
19251;SDS011;9760;50.944;5.304;2023-12-07T00:25:36;64.63;;;17.63;;
19251;SDS011;9760;50.944;5.304;2023-12-07T00:28:01;95.10;;;18.43;;
19251;SDS011;9760;50.944;5.304;2023-12-07T00:30:28;61.37;;;18.63;;
19251;SDS011;9760;50.944;5.304;2023-12-07T00:32:54;88.30;;;20.40;;
19251;SDS011;9760;50.944;5.304;2023-12-07T00:35:19;101.30;;;19.80;;
19251;SDS011;9760;50.944;5.304;2023-12-07T00:37:47;186.27;;;23.07;;
19251;SDS011;9760;50.944;5.304;2023-12-07T00:40:13;93.37;;;20.70;;
19251;SDS011;9760;50.944;5.304;2023-12-07T00:42:39;85.07;;;20.07;;
19251;SDS011;9760;50.944;5.304;2023-12-07T00:45:05;90.00;;;19.03;;
19251;SDS011;9760;50.944;5.304;2023-12-07T00:47:31;85.57;;;19.93;;
19251;SDS011;9760;50.944;5.304;2023-12-07T00:49:56;86.00;;;19.40;;
19251;SDS011;9760;50.944;5.304;2023-12-07T00:52:22;155.07;;;26.23;;
19251;SDS011;9760;50.944;5.304;2023-12-07T00:54:47;159.87;;;25.47;;
19251;SDS011;9760;50.944;5.304;2023-12-07T00:57:13;72.70;;;18.37;;
19251;SDS011;9760;50.944;5.304;2023-12-07T00:59:39;196.97;;;24.23;;
19251;SDS011;9760;50.944;5.304;2023-12-07T01:02:05;84.00;;;19.93;;
19251;SDS011;9760;50.944;5.304;2023-12-07T01:04:32;69.77;;;19.67;;
19251;SDS011;9760;50.944;5.304;2023-12-07T01:06:58;120.93;;;21.00;;
19251;SDS011;9760;50.944;5.304;2023-12-07T01:09:24;96.03;;;19.73;;
19251;SDS011;9760;50.944;5.304;2023-12-07T01:11:50;149.90;;;21.63;;
19251;SDS011;9760;50.944;5.304;2023-12-07T01:14:17;138.97;;;19.70;;
19251;SDS011;9760;50.944;5.304;2023-12-07T01:16:43;87.07;;;18.70;;
19251;SDS011;9760;50.944;5.304;2023-12-07T01:19:09;102.70;;;20.30;;
19251;SDS011;9760;50.944;5.304;2023-12-07T01:21:39;107.10;;;21.57;;
19251;SDS011;9760;50.944;5.304;2023-12-07T01:24:06;78.70;;;19.60;;
19251;SDS011;9760;50.944;5.304;2023-12-07T01:26:32;67.60;;;18.70;;
19251;SDS011;9760;50.944;5.304;2023-12-07T01:28:57;105.90;;;22.47;;
19251;SDS011;9760;50.944;5.304;2023-12-07T01:31:23;68.90;;;18.57;;
19251;SDS011;9760;50.944;5.304;2023-12-07T01:33:50;74.60;;;17.97;;
19251;SDS011;9760;50.944;5.304;2023-12-07T01:36:15;64.87;;;18.57;;
19251;SDS011;9760;50.944;5.304;2023-12-07T01:38:41;90.20;;;19.50;;
19251;SDS011;9760;50.944;5.304;2023-12-07T01:41:08;80.83;;;18.47;;
19251;SDS011;9760;50.944;5.304;2023-12-07T01:43:34;112.13;;;18.80;;
19251;SDS011;9760;50.944;5.304;2023-12-07T01:45:59;108.40;;;19.23;;
19251;SDS011;9760;50.944;5.304;2023-12-07T01:48:25;94.70;;;18.53;;
19251;SDS011;9760;50.944;5.304;2023-12-07T01:50:55;137.13;;;18.57;;
19251;SDS011;9760;50.944;5.304;2023-12-07T01:53:23;133.27;;;20.40;;
19251;SDS011;9760;50.944;5.304;2023-12-07T01:55:50;94.90;;;18.23;;
19251;SDS011;9760;50.944;5.304;2023-12-07T01:58:17;63.37;;;15.60;;
19251;SDS011;9760;50.944;5.304;2023-12-07T02:00:44;54.60;;;16.77;;
19251;SDS011;9760;50.944;5.304;2023-12-07T02:03:11;102.63;;;18.53;;
19251;SDS011;9760;50.944;5.304;2023-12-07T02:05:40;56.87;;;17.63;;
19251;SDS011;9760;50.944;5.304;2023-12-07T02:08:08;53.10;;;15.63;;
19251;SDS011;9760;50.944;5.304;2023-12-07T02:10:33;59.47;;;16.13;;
19251;SDS011;9760;50.944;5.304;2023-12-07T02:12:59;71.13;;;16.97;;
19251;SDS011;9760;50.944;5.304;2023-12-07T02:15:25;76.20;;;17.13;;
19251;SDS011;9760;50.944;5.304;2023-12-07T02:20:32;59.40;;;15.90;;
19251;SDS011;9760;50.944;5.304;2023-12-07T02:23:07;51.73;;;16.07;;
19251;SDS011;9760;50.944;5.304;2023-12-07T02:25:40;36.33;;;13.93;;
19251;SDS011;9760;50.944;5.304;2023-12-07T02:28:27;48.13;;;15.23;;
19251;SDS011;9760;50.944;5.304;2023-12-07T02:30:53;49.07;;;13.87;;
19251;SDS011;9760;50.944;5.304;2023-12-07T02:33:19;39.27;;;13.10;;
19251;SDS011;9760;50.944;5.304;2023-12-07T02:35:45;41.77;;;13.40;;
19251;SDS011;9760;50.944;5.304;2023-12-07T02:38:11;36.60;;;12.87;;
19251;SDS011;9760;50.944;5.304;2023-12-07T02:40:37;51.17;;;13.23;;
19251;SDS011;9760;50.944;5.304;2023-12-07T02:43:05;37.07;;;13.20;;
19251;SDS011;9760;50.944;5.304;2023-12-07T02:45:32;53.27;;;13.43;;
19251;SDS011;9760;50.944;5.304;2023-12-07T02:47:59;64.80;;;13.90;;
19251;SDS011;9760;50.944;5.304;2023-12-07T02:50:24;50.30;;;14.60;;
19251;SDS011;9760;50.944;5.304;2023-12-07T02:52:50;40.90;;;13.13;;
19251;SDS011;9760;50.944;5.304;2023-12-07T02:55:16;54.70;;;14.30;;
19251;SDS011;9760;50.944;5.304;2023-12-07T02:57:42;60.87;;;14.43;;
19251;SDS011;9760;50.944;5.304;2023-12-07T03:00:08;55.53;;;14.73;;
19251;SDS011;9760;50.944;5.304;2023-12-07T03:02:35;41.40;;;13.83;;
19251;SDS011;9760;50.944;5.304;2023-12-07T03:05:04;56.57;;;15.00;;
19251;SDS011;9760;50.944;5.304;2023-12-07T03:07:30;45.33;;;14.67;;
19251;SDS011;9760;50.944;5.304;2023-12-07T03:09:56;45.90;;;14.00;;
19251;SDS011;9760;50.944;5.304;2023-12-07T03:12:22;43.40;;;14.83;;
19251;SDS011;9760;50.944;5.304;2023-12-07T03:14:48;48.60;;;14.30;;
19251;SDS011;9760;50.944;5.304;2023-12-07T03:17:14;48.67;;;15.40;;
19251;SDS011;9760;50.944;5.304;2023-12-07T03:19:39;52.10;;;15.33;;
19251;SDS011;9760;50.944;5.304;2023-12-07T03:22:06;55.63;;;16.70;;
19251;SDS011;9760;50.944;5.304;2023-12-07T03:24:32;66.13;;;16.37;;
19251;SDS011;9760;50.944;5.304;2023-12-07T03:26:59;53.77;;;15.53;;
19251;SDS011;9760;50.944;5.304;2023-12-07T03:29:24;57.97;;;15.37;;
19251;SDS011;9760;50.944;5.304;2023-12-07T03:31:50;52.97;;;15.63;;
19251;SDS011;9760;50.944;5.304;2023-12-07T03:34:16;60.77;;;16.43;;
19251;SDS011;9760;50.944;5.304;2023-12-07T03:36:44;58.73;;;16.43;;
19251;SDS011;9760;50.944;5.304;2023-12-07T03:39:11;56.00;;;17.33;;
19251;SDS011;9760;50.944;5.304;2023-12-07T03:41:38;53.43;;;17.17;;
19251;SDS011;9760;50.944;5.304;2023-12-07T03:44:03;46.03;;;16.20;;
19251;SDS011;9760;50.944;5.304;2023-12-07T03:46:29;44.87;;;16.23;;
19251;SDS011;9760;50.944;5.304;2023-12-07T03:48:55;41.10;;;15.40;;
19251;SDS011;9760;50.944;5.304;2023-12-07T03:51:20;42.23;;;14.73;;
19251;SDS011;9760;50.944;5.304;2023-12-07T03:53:46;39.90;;;15.17;;
19251;SDS011;9760;50.944;5.304;2023-12-07T03:56:22;40.03;;;14.33;;
19251;SDS011;9760;50.944;5.304;2023-12-07T03:58:48;40.27;;;14.93;;
19251;SDS011;9760;50.944;5.304;2023-12-07T04:01:14;38.10;;;12.37;;
19251;SDS011;9760;50.944;5.304;2023-12-07T04:03:39;42.63;;;14.13;;
19251;SDS011;9760;50.944;5.304;2023-12-07T04:06:05;34.20;;;13.37;;
19251;SDS011;9760;50.944;5.304;2023-12-07T04:08:31;40.43;;;13.53;;
19251;SDS011;9760;50.944;5.304;2023-12-07T04:10:56;34.67;;;14.70;;
19251;SDS011;9760;50.944;5.304;2023-12-07T04:13:22;38.07;;;13.17;;
19251;SDS011;9760;50.944;5.304;2023-12-07T04:15:47;36.40;;;13.10;;
19251;SDS011;9760;50.944;5.304;2023-12-07T04:18:13;38.20;;;13.20;;
19251;SDS011;9760;50.944;5.304;2023-12-07T04:20:39;34.97;;;13.43;;
19251;SDS011;9760;50.944;5.304;2023-12-07T04:23:04;40.03;;;13.73;;
19251;SDS011;9760;50.944;5.304;2023-12-07T04:25:30;36.60;;;13.57;;
19251;SDS011;9760;50.944;5.304;2023-12-07T04:27:56;37.93;;;13.27;;
19251;SDS011;9760;50.944;5.304;2023-12-07T04:30:21;36.70;;;13.47;;
19251;SDS011;9760;50.944;5.304;2023-12-07T04:32:47;29.37;;;11.87;;
19251;SDS011;9760;50.944;5.304;2023-12-07T04:35:13;32.57;;;13.63;;
19251;SDS011;9760;50.944;5.304;2023-12-07T04:37:39;34.87;;;12.77;;
19251;SDS011;9760;50.944;5.304;2023-12-07T04:40:05;33.70;;;12.43;;
19251;SDS011;9760;50.944;5.304;2023-12-07T04:42:31;31.73;;;12.23;;
19251;SDS011;9760;50.944;5.304;2023-12-07T04:44:57;33.47;;;12.17;;
19251;SDS011;9760;50.944;5.304;2023-12-07T04:47:22;31.67;;;12.33;;
19251;SDS011;9760;50.944;5.304;2023-12-07T04:49:48;32.83;;;13.10;;
19251;SDS011;9760;50.944;5.304;2023-12-07T04:52:14;30.03;;;12.43;;
19251;SDS011;9760;50.944;5.304;2023-12-07T04:54:40;25.97;;;10.87;;
19251;SDS011;9760;50.944;5.304;2023-12-07T04:57:06;29.90;;;11.47;;
19251;SDS011;9760;50.944;5.304;2023-12-07T04:59:32;27.37;;;10.83;;
19251;SDS011;9760;50.944;5.304;2023-12-07T05:01:58;31.70;;;12.37;;
19251;SDS011;9760;50.944;5.304;2023-12-07T05:04:23;26.60;;;10.67;;
19251;SDS011;9760;50.944;5.304;2023-12-07T05:06:49;31.50;;;12.10;;
19251;SDS011;9760;50.944;5.304;2023-12-07T05:09:15;27.97;;;11.70;;
19251;SDS011;9760;50.944;5.304;2023-12-07T05:11:41;28.97;;;12.30;;
19251;SDS011;9760;50.944;5.304;2023-12-07T05:14:07;27.43;;;10.73;;
19251;SDS011;9760;50.944;5.304;2023-12-07T05:16:32;27.97;;;11.03;;
19251;SDS011;9760;50.944;5.304;2023-12-07T05:18:58;24.67;;;10.93;;
19251;SDS011;9760;50.944;5.304;2023-12-07T05:21:24;26.97;;;10.70;;
19251;SDS011;9760;50.944;5.304;2023-12-07T05:23:49;32.43;;;11.53;;
19251;SDS011;9760;50.944;5.304;2023-12-07T05:26:15;33.77;;;11.90;;
19251;SDS011;9760;50.944;5.304;2023-12-07T05:28:41;23.90;;;10.73;;
19251;SDS011;9760;50.944;5.304;2023-12-07T05:31:07;31.70;;;11.20;;
19251;SDS011;9760;50.944;5.304;2023-12-07T05:33:33;24.07;;;10.07;;
19251;SDS011;9760;50.944;5.304;2023-12-07T05:35:58;31.07;;;11.90;;
19251;SDS011;9760;50.944;5.304;2023-12-07T05:38:25;38.37;;;11.73;;
19251;SDS011;9760;50.944;5.304;2023-12-07T05:40:51;27.70;;;10.67;;
19251;SDS011;9760;50.944;5.304;2023-12-07T05:43:17;30.80;;;11.87;;
19251;SDS011;9760;50.944;5.304;2023-12-07T05:45:42;29.23;;;10.30;;
19251;SDS011;9760;50.944;5.304;2023-12-07T05:48:08;28.97;;;11.60;;
19251;SDS011;9760;50.944;5.304;2023-12-07T05:50:34;30.63;;;11.70;;
19251;SDS011;9760;50.944;5.304;2023-12-07T05:53:04;26.13;;;10.23;;
19251;SDS011;9760;50.944;5.304;2023-12-07T05:55:31;26.07;;;10.33;;
19251;SDS011;9760;50.944;5.304;2023-12-07T05:57:57;21.77;;;9.60;;
19251;SDS011;9760;50.944;5.304;2023-12-07T06:00:24;35.73;;;12.40;;
19251;SDS011;9760;50.944;5.304;2023-12-07T06:02:50;29.87;;;12.17;;
19251;SDS011;9760;50.944;5.304;2023-12-07T06:05:16;28.70;;;11.23;;
19251;SDS011;9760;50.944;5.304;2023-12-07T06:07:41;29.03;;;11.53;;
19251;SDS011;9760;50.944;5.304;2023-12-07T06:10:07;34.70;;;12.53;;
19251;SDS011;9760;50.944;5.304;2023-12-07T06:12:33;25.57;;;10.93;;
19251;SDS011;9760;50.944;5.304;2023-12-07T06:14:59;27.50;;;11.20;;
19251;SDS011;9760;50.944;5.304;2023-12-07T06:17:24;27.63;;;12.07;;
19251;SDS011;9760;50.944;5.304;2023-12-07T06:19:50;34.63;;;13.17;;
19251;SDS011;9760;50.944;5.304;2023-12-07T06:22:16;25.60;;;11.80;;
19251;SDS011;9760;50.944;5.304;2023-12-07T06:24:41;26.47;;;11.87;;
19251;SDS011;9760;50.944;5.304;2023-12-07T06:27:07;23.50;;;11.47;;
19251;SDS011;9760;50.944;5.304;2023-12-07T06:29:33;23.60;;;11.40;;
19251;SDS011;9760;50.944;5.304;2023-12-07T06:31:58;28.10;;;10.93;;
19251;SDS011;9760;50.944;5.304;2023-12-07T06:34:25;22.90;;;11.00;;
19251;SDS011;9760;50.944;5.304;2023-12-07T06:36:53;21.43;;;11.10;;
19251;SDS011;9760;50.944;5.304;2023-12-07T06:39:18;25.60;;;11.47;;
19251;SDS011;9760;50.944;5.304;2023-12-07T06:41:44;24.37;;;11.73;;
19251;SDS011;9760;50.944;5.304;2023-12-07T06:44:09;27.23;;;11.93;;
19251;SDS011;9760;50.944;5.304;2023-12-07T06:46:35;24.20;;;11.13;;
19251;SDS011;9760;50.944;5.304;2023-12-07T06:49:01;27.60;;;11.63;;
19251;SDS011;9760;50.944;5.304;2023-12-07T06:51:27;22.20;;;10.43;;
19251;SDS011;9760;50.944;5.304;2023-12-07T06:53:52;21.37;;;10.17;;
19251;SDS011;9760;50.944;5.304;2023-12-07T06:56:18;24.43;;;10.27;;
19251;SDS011;9760;50.944;5.304;2023-12-07T06:58:44;29.77;;;12.30;;
19251;SDS011;9760;50.944;5.304;2023-12-07T07:01:09;24.97;;;11.40;;
19251;SDS011;9760;50.944;5.304;2023-12-07T07:03:35;27.60;;;11.77;;
19251;SDS011;9760;50.944;5.304;2023-12-07T07:06:01;26.00;;;11.97;;
19251;SDS011;9760;50.944;5.304;2023-12-07T07:08:27;25.97;;;11.33;;
19251;SDS011;9760;50.944;5.304;2023-12-07T07:10:52;29.63;;;10.83;;
19251;SDS011;9760;50.944;5.304;2023-12-07T07:13:18;27.53;;;11.77;;
19251;SDS011;9760;50.944;5.304;2023-12-07T07:15:45;20.93;;;10.67;;
19251;SDS011;9760;50.944;5.304;2023-12-07T07:18:11;28.47;;;12.53;;
19251;SDS011;9760;50.944;5.304;2023-12-07T07:20:37;27.57;;;12.60;;
19251;SDS011;9760;50.944;5.304;2023-12-07T07:23:03;29.27;;;12.10;;
19251;SDS011;9760;50.944;5.304;2023-12-07T07:25:28;24.13;;;11.00;;
19251;SDS011;9760;50.944;5.304;2023-12-07T07:27:54;23.23;;;11.10;;
19251;SDS011;9760;50.944;5.304;2023-12-07T07:30:20;25.77;;;11.90;;
19251;SDS011;9760;50.944;5.304;2023-12-07T07:32:46;24.60;;;12.13;;
19251;SDS011;9760;50.944;5.304;2023-12-07T07:35:13;31.80;;;12.80;;
19251;SDS011;9760;50.944;5.304;2023-12-07T07:37:39;27.07;;;11.63;;
19251;SDS011;9760;50.944;5.304;2023-12-07T07:40:06;23.33;;;11.20;;
19251;SDS011;9760;50.944;5.304;2023-12-07T07:42:33;36.50;;;15.33;;
19251;SDS011;9760;50.944;5.304;2023-12-07T07:44:59;29.90;;;13.30;;
19251;SDS011;9760;50.944;5.304;2023-12-07T07:47:25;29.80;;;12.40;;
19251;SDS011;9760;50.944;5.304;2023-12-07T07:49:50;25.70;;;11.97;;
19251;SDS011;9760;50.944;5.304;2023-12-07T07:52:16;29.40;;;12.13;;
19251;SDS011;9760;50.944;5.304;2023-12-07T07:54:42;31.47;;;11.63;;
19251;SDS011;9760;50.944;5.304;2023-12-07T07:57:08;28.77;;;12.23;;
19251;SDS011;9760;50.944;5.304;2023-12-07T07:59:33;26.17;;;11.77;;
19251;SDS011;9760;50.944;5.304;2023-12-07T08:01:59;25.97;;;12.00;;
19251;SDS011;9760;50.944;5.304;2023-12-07T08:04:25;29.23;;;11.63;;
19251;SDS011;9760;50.944;5.304;2023-12-07T08:06:50;30.47;;;12.07;;
19251;SDS011;9760;50.944;5.304;2023-12-07T08:09:16;35.67;;;13.20;;
19251;SDS011;9760;50.944;5.304;2023-12-07T08:11:42;27.13;;;11.90;;
19251;SDS011;9760;50.944;5.304;2023-12-07T08:14:07;22.90;;;11.37;;
19251;SDS011;9760;50.944;5.304;2023-12-07T08:16:33;27.73;;;11.47;;
19251;SDS011;9760;50.944;5.304;2023-12-07T08:18:59;25.33;;;11.73;;
19251;SDS011;9760;50.944;5.304;2023-12-07T08:21:25;28.80;;;12.23;;
19251;SDS011;9760;50.944;5.304;2023-12-07T08:23:51;24.93;;;11.73;;
19251;SDS011;9760;50.944;5.304;2023-12-07T08:26:17;25.00;;;12.07;;
19251;SDS011;9760;50.944;5.304;2023-12-07T08:28:42;30.67;;;11.70;;
19251;SDS011;9760;50.944;5.304;2023-12-07T08:31:08;27.20;;;11.50;;
19251;SDS011;9760;50.944;5.304;2023-12-07T08:33:34;23.60;;;11.17;;
19251;SDS011;9760;50.944;5.304;2023-12-07T08:36:01;27.53;;;12.00;;
19251;SDS011;9760;50.944;5.304;2023-12-07T08:38:27;34.50;;;11.60;;
19251;SDS011;9760;50.944;5.304;2023-12-07T08:40:52;28.30;;;11.33;;
19251;SDS011;9760;50.944;5.304;2023-12-07T08:43:20;29.87;;;11.53;;
19251;SDS011;9760;50.944;5.304;2023-12-07T08:45:50;26.23;;;11.40;;
19251;SDS011;9760;50.944;5.304;2023-12-07T08:48:16;29.50;;;11.27;;
19251;SDS011;9760;50.944;5.304;2023-12-07T08:50:41;23.20;;;10.63;;
19251;SDS011;9760;50.944;5.304;2023-12-07T08:53:07;27.37;;;11.10;;
19251;SDS011;9760;50.944;5.304;2023-12-07T08:55:33;26.77;;;11.90;;
19251;SDS011;9760;50.944;5.304;2023-12-07T08:57:58;29.47;;;11.83;;
19251;SDS011;9760;50.944;5.304;2023-12-07T09:00:25;25.87;;;11.43;;
19251;SDS011;9760;50.944;5.304;2023-12-07T09:02:51;28.70;;;11.60;;
19251;SDS011;9760;50.944;5.304;2023-12-07T09:05:17;23.17;;;10.70;;
19251;SDS011;9760;50.944;5.304;2023-12-07T09:07:43;24.60;;;11.27;;
19251;SDS011;9760;50.944;5.304;2023-12-07T09:10:09;22.57;;;11.40;;
19251;SDS011;9760;50.944;5.304;2023-12-07T09:12:35;24.40;;;10.30;;
19251;SDS011;9760;50.944;5.304;2023-12-07T09:15:04;22.30;;;10.00;;
19251;SDS011;9760;50.944;5.304;2023-12-07T09:17:32;23.50;;;10.53;;
19251;SDS011;9760;50.944;5.304;2023-12-07T09:19:58;25.93;;;11.07;;
19251;SDS011;9760;50.944;5.304;2023-12-07T09:22:23;25.10;;;10.33;;
19251;SDS011;9760;50.944;5.304;2023-12-07T09:24:50;20.20;;;9.77;;
19251;SDS011;9760;50.944;5.304;2023-12-07T09:27:15;22.47;;;10.20;;
19251;SDS011;9760;50.944;5.304;2023-12-07T09:29:41;23.13;;;10.60;;
19251;SDS011;9760;50.944;5.304;2023-12-07T09:32:07;20.97;;;9.33;;
19251;SDS011;9760;50.944;5.304;2023-12-07T09:34:33;22.53;;;10.00;;
19251;SDS011;9760;50.944;5.304;2023-12-07T09:37:05;18.60;;;8.93;;
19251;SDS011;9760;50.944;5.304;2023-12-07T09:39:34;18.87;;;9.30;;
19251;SDS011;9760;50.944;5.304;2023-12-07T09:42:00;18.27;;;8.80;;
19251;SDS011;9760;50.944;5.304;2023-12-07T09:44:27;18.73;;;9.07;;
19251;SDS011;9760;50.944;5.304;2023-12-07T09:46:53;18.57;;;8.73;;
19251;SDS011;9760;50.944;5.304;2023-12-07T09:49:19;17.20;;;8.60;;
19251;SDS011;9760;50.944;5.304;2023-12-07T09:51:46;18.90;;;8.03;;
19251;SDS011;9760;50.944;5.304;2023-12-07T09:54:12;16.17;;;7.63;;
19251;SDS011;9760;50.944;5.304;2023-12-07T09:56:38;17.17;;;8.93;;
19251;SDS011;9760;50.944;5.304;2023-12-07T09:59:06;15.97;;;7.00;;
19251;SDS011;9760;50.944;5.304;2023-12-07T10:01:32;17.93;;;8.10;;
19251;SDS011;9760;50.944;5.304;2023-12-07T10:06:51;16.87;;;7.57;;
19251;SDS011;9760;50.944;5.304;2023-12-07T10:09:17;15.27;;;7.33;;
19251;SDS011;9760;50.944;5.304;2023-12-07T10:11:46;14.00;;;7.57;;
19251;SDS011;9760;50.944;5.304;2023-12-07T10:14:12;13.90;;;7.10;;
19251;SDS011;9760;50.944;5.304;2023-12-07T10:16:39;13.03;;;6.87;;
19251;SDS011;9760;50.944;5.304;2023-12-07T10:19:20;12.77;;;7.30;;
19251;SDS011;9760;50.944;5.304;2023-12-07T10:21:49;11.37;;;6.47;;
19251;SDS011;9760;50.944;5.304;2023-12-07T10:24:16;12.23;;;6.50;;
19251;SDS011;9760;50.944;5.304;2023-12-07T10:26:47;13.63;;;6.70;;
19251;SDS011;9760;50.944;5.304;2023-12-07T10:29:14;12.37;;;6.60;;
19251;SDS011;9760;50.944;5.304;2023-12-07T10:31:42;17.33;;;7.23;;
19251;SDS011;9760;50.944;5.304;2023-12-07T10:34:09;12.23;;;6.57;;
19251;SDS011;9760;50.944;5.304;2023-12-07T10:36:34;14.10;;;6.67;;
19251;SDS011;9760;50.944;5.304;2023-12-07T10:39:00;17.87;;;6.50;;
19251;SDS011;9760;50.944;5.304;2023-12-07T10:41:26;16.93;;;7.33;;
19251;SDS011;9760;50.944;5.304;2023-12-07T10:44:01;14.97;;;6.63;;
19251;SDS011;9760;50.944;5.304;2023-12-07T10:46:31;17.07;;;7.07;;
19251;SDS011;9760;50.944;5.304;2023-12-07T10:49:03;16.70;;;7.00;;
19251;SDS011;9760;50.944;5.304;2023-12-07T10:54:26;16.63;;;7.43;;
19251;SDS011;9760;50.944;5.304;2023-12-07T10:57:06;14.93;;;6.07;;
19251;SDS011;9760;50.944;5.304;2023-12-07T10:59:33;14.60;;;6.70;;
19251;SDS011;9760;50.944;5.304;2023-12-07T11:02:02;13.47;;;7.00;;
19251;SDS011;9760;50.944;5.304;2023-12-07T11:04:28;15.00;;;6.70;;
19251;SDS011;9760;50.944;5.304;2023-12-07T11:06:56;17.27;;;7.13;;
19251;SDS011;9760;50.944;5.304;2023-12-07T11:09:30;18.07;;;8.00;;
19251;SDS011;9760;50.944;5.304;2023-12-07T11:12:20;15.87;;;7.00;;
19251;SDS011;9760;50.944;5.304;2023-12-07T11:14:54;15.33;;;6.87;;
19251;SDS011;9760;50.944;5.304;2023-12-07T11:17:20;16.40;;;6.97;;
19251;SDS011;9760;50.944;5.304;2023-12-07T11:19:47;16.93;;;6.90;;
19251;SDS011;9760;50.944;5.304;2023-12-07T11:22:13;15.70;;;7.27;;
19251;SDS011;9760;50.944;5.304;2023-12-07T11:27:35;17.83;;;7.47;;
19251;SDS011;9760;50.944;5.304;2023-12-07T11:30:02;12.70;;;6.73;;
19251;SDS011;9760;50.944;5.304;2023-12-07T11:32:28;15.90;;;6.90;;
19251;SDS011;9760;50.944;5.304;2023-12-07T11:34:54;15.87;;;6.60;;
19251;SDS011;9760;50.944;5.304;2023-12-07T11:37:27;17.80;;;7.23;;
19251;SDS011;9760;50.944;5.304;2023-12-07T11:40:26;18.43;;;7.50;;
19251;SDS011;9760;50.944;5.304;2023-12-07T11:42:52;14.40;;;6.63;;
19251;SDS011;9760;50.944;5.304;2023-12-07T11:45:35;16.50;;;6.43;;
19251;SDS011;9760;50.944;5.304;2023-12-07T11:48:12;13.90;;;7.37;;
19251;SDS011;9760;50.944;5.304;2023-12-07T11:53:27;13.67;;;6.40;;
19251;SDS011;9760;50.944;5.304;2023-12-07T11:55:57;18.97;;;6.53;;
19251;SDS011;9760;50.944;5.304;2023-12-07T11:58:25;14.07;;;6.80;;
19251;SDS011;9760;50.944;5.304;2023-12-07T12:00:52;20.33;;;6.67;;
19251;SDS011;9760;50.944;5.304;2023-12-07T12:03:22;12.53;;;6.53;;
19251;SDS011;9760;50.944;5.304;2023-12-07T12:05:48;17.33;;;6.83;;
19251;SDS011;9760;50.944;5.304;2023-12-07T12:08:13;13.10;;;6.87;;
19251;SDS011;9760;50.944;5.304;2023-12-07T12:10:41;12.30;;;6.10;;
19251;SDS011;9760;50.944;5.304;2023-12-07T12:13:10;14.23;;;7.00;;
19251;SDS011;9760;50.944;5.304;2023-12-07T12:15:36;16.00;;;6.43;;
19251;SDS011;9760;50.944;5.304;2023-12-07T12:18:03;14.20;;;6.67;;
19251;SDS011;9760;50.944;5.304;2023-12-07T12:20:29;13.53;;;6.27;;
19251;SDS011;9760;50.944;5.304;2023-12-07T12:22:56;11.70;;;6.00;;
19251;SDS011;9760;50.944;5.304;2023-12-07T12:25:22;13.47;;;6.50;;
19251;SDS011;9760;50.944;5.304;2023-12-07T12:27:59;12.10;;;5.87;;
19251;SDS011;9760;50.944;5.304;2023-12-07T12:30:28;14.60;;;6.57;;
19251;SDS011;9760;50.944;5.304;2023-12-07T12:32:54;13.37;;;6.50;;
19251;SDS011;9760;50.944;5.304;2023-12-07T12:35:20;14.17;;;6.30;;
19251;SDS011;9760;50.944;5.304;2023-12-07T12:37:47;14.20;;;5.90;;
19251;SDS011;9760;50.944;5.304;2023-12-07T12:40:17;12.97;;;6.33;;
19251;SDS011;9760;50.944;5.304;2023-12-07T12:42:44;16.97;;;6.00;;
19251;SDS011;9760;50.944;5.304;2023-12-07T12:45:12;17.37;;;6.87;;
19251;SDS011;9760;50.944;5.304;2023-12-07T12:47:39;15.63;;;6.07;;
19251;SDS011;9760;50.944;5.304;2023-12-07T12:50:11;16.03;;;6.10;;
19251;SDS011;9760;50.944;5.304;2023-12-07T12:52:39;13.33;;;6.00;;
19251;SDS011;9760;50.944;5.304;2023-12-07T12:55:14;15.00;;;6.17;;
19251;SDS011;9760;50.944;5.304;2023-12-07T12:57:39;14.10;;;6.10;;
19251;SDS011;9760;50.944;5.304;2023-12-07T13:00:05;16.73;;;6.00;;
19251;SDS011;9760;50.944;5.304;2023-12-07T13:02:33;13.07;;;5.23;;
19251;SDS011;9760;50.944;5.304;2023-12-07T13:04:59;12.80;;;5.63;;
19251;SDS011;9760;50.944;5.304;2023-12-07T13:07:25;13.60;;;6.03;;
19251;SDS011;9760;50.944;5.304;2023-12-07T13:09:51;11.17;;;5.30;;
19251;SDS011;9760;50.944;5.304;2023-12-07T13:12:16;10.63;;;5.80;;
19251;SDS011;9760;50.944;5.304;2023-12-07T13:14:42;17.63;;;5.90;;
19251;SDS011;9760;50.944;5.304;2023-12-07T13:17:08;16.07;;;5.37;;
19251;SDS011;9760;50.944;5.304;2023-12-07T13:19:33;13.30;;;5.43;;
19251;SDS011;9760;50.944;5.304;2023-12-07T13:22:00;10.07;;;5.40;;
19251;SDS011;9760;50.944;5.304;2023-12-07T13:24:26;8.63;;;5.10;;
19251;SDS011;9760;50.944;5.304;2023-12-07T13:26:51;15.43;;;5.90;;
19251;SDS011;9760;50.944;5.304;2023-12-07T13:29:17;15.33;;;5.63;;
19251;SDS011;9760;50.944;5.304;2023-12-07T13:31:43;12.27;;;5.43;;
19251;SDS011;9760;50.944;5.304;2023-12-07T13:34:08;13.40;;;5.40;;
19251;SDS011;9760;50.944;5.304;2023-12-07T13:36:34;13.60;;;5.40;;
19251;SDS011;9760;50.944;5.304;2023-12-07T13:39:01;19.47;;;5.37;;
19251;SDS011;9760;50.944;5.304;2023-12-07T13:41:29;9.63;;;5.43;;
19251;SDS011;9760;50.944;5.304;2023-12-07T13:43:55;11.20;;;5.20;;
19251;SDS011;9760;50.944;5.304;2023-12-07T13:46:21;15.33;;;5.53;;
19251;SDS011;9760;50.944;5.304;2023-12-07T13:48:48;15.47;;;5.50;;
19251;SDS011;9760;50.944;5.304;2023-12-07T13:51:15;17.43;;;5.10;;
19251;SDS011;9760;50.944;5.304;2023-12-07T13:53:41;10.23;;;5.03;;
19251;SDS011;9760;50.944;5.304;2023-12-07T13:56:06;12.60;;;5.10;;
19251;SDS011;9760;50.944;5.304;2023-12-07T13:58:33;14.50;;;5.60;;
19251;SDS011;9760;50.944;5.304;2023-12-07T14:01:01;10.50;;;5.07;;
19251;SDS011;9760;50.944;5.304;2023-12-07T14:03:27;9.20;;;4.00;;
19251;SDS011;9760;50.944;5.304;2023-12-07T14:05:53;9.40;;;4.90;;
19251;SDS011;9760;50.944;5.304;2023-12-07T14:08:19;9.07;;;4.90;;
19251;SDS011;9760;50.944;5.304;2023-12-07T14:10:45;11.87;;;4.50;;
19251;SDS011;9760;50.944;5.304;2023-12-07T14:13:11;18.90;;;5.03;;
19251;SDS011;9760;50.944;5.304;2023-12-07T14:15:36;9.20;;;4.53;;
19251;SDS011;9760;50.944;5.304;2023-12-07T14:18:02;23.13;;;6.57;;
19251;SDS011;9760;50.944;5.304;2023-12-07T14:20:28;11.90;;;4.80;;
19251;SDS011;9760;50.944;5.304;2023-12-07T14:22:54;14.83;;;5.70;;
19251;SDS011;9760;50.944;5.304;2023-12-07T14:25:20;17.20;;;5.87;;
19251;SDS011;9760;50.944;5.304;2023-12-07T14:27:46;11.60;;;5.47;;
19251;SDS011;9760;50.944;5.304;2023-12-07T14:30:12;11.87;;;5.37;;
19251;SDS011;9760;50.944;5.304;2023-12-07T14:32:38;10.13;;;5.43;;
19251;SDS011;9760;50.944;5.304;2023-12-07T14:35:06;14.10;;;5.13;;
19251;SDS011;9760;50.944;5.304;2023-12-07T14:37:32;10.57;;;4.97;;
19251;SDS011;9760;50.944;5.304;2023-12-07T14:39:57;8.47;;;4.70;;
19251;SDS011;9760;50.944;5.304;2023-12-07T14:42:23;13.90;;;5.10;;
19251;SDS011;9760;50.944;5.304;2023-12-07T14:44:49;9.67;;;5.07;;
19251;SDS011;9760;50.944;5.304;2023-12-07T14:47:14;13.70;;;5.27;;
19251;SDS011;9760;50.944;5.304;2023-12-07T14:49:40;8.30;;;4.60;;